createdAt,value
2017-05-30T00:00:07.869Z,58.58
2017-05-30T00:00:48.462Z,58.58
2017-05-30T00:01:29.058Z,58.58
2017-05-30T00:02:09.630Z,59.35
2017-05-30T00:02:50.217Z,59.16
2017-05-30T00:03:30.792Z,59.74
2017-05-30T00:04:11.373Z,59.74
2017-05-30T00:04:51.964Z,59.74
2017-05-30T00:05:32.548Z,59.35
2017-05-30T00:06:13.122Z,59.64
2017-05-30T00:06:53.706Z,59.93
2017-05-30T00:07:34.298Z,59.93
2017-05-30T00:08:14.874Z,59.64
2017-05-30T00:08:55.472Z,59.64
2017-05-30T00:09:36.071Z,59.93
2017-05-30T00:10:16.654Z,59.06
2017-05-30T00:10:57.256Z,58.75
2017-05-30T00:11:37.830Z,58.77
2017-05-30T00:12:18.426Z,59.06
2017-05-30T00:12:59.009Z,59.64
2017-05-30T00:13:39.665Z,59.35
2017-05-30T00:14:20.257Z,59.74
2017-05-30T00:15:00.840Z,60.1
2017-05-30T00:15:41.426Z,59.9
2017-05-30T00:16:21.994Z,60.1
2017-05-30T00:17:02.577Z,60.48
2017-05-30T00:17:43.159Z,60
2017-05-30T00:18:23.747Z,60.48
2017-05-30T00:19:04.328Z,60.1
2017-05-30T00:19:44.943Z,60.28
2017-05-30T00:20:25.541Z,60.68
2017-05-30T00:21:06.131Z,60.68
2017-05-30T00:21:46.708Z,60.68
2017-05-30T00:22:27.292Z,60.19
2017-05-30T00:23:07.873Z,60.1
2017-05-30T00:23:48.457Z,60.68
2017-05-30T00:24:29.045Z,60.86
2017-05-30T00:25:09.636Z,60.71
2017-05-30T00:25:50.221Z,60.58
2017-05-30T00:26:30.809Z,60.86
2017-05-30T00:27:11.388Z,60.96
2017-05-30T00:27:51.959Z,60.99
2017-05-30T00:28:32.557Z,61.06
2017-05-30T00:29:13.143Z,60.38
2017-05-30T00:29:53.720Z,60.77
2017-05-30T00:30:34.304Z,60.86
2017-05-30T00:31:14.898Z,60.96
2017-05-30T00:31:55.496Z,60.68
2017-05-30T00:32:36.077Z,60.77
2017-05-30T00:33:16.659Z,60.96
2017-05-30T00:33:57.236Z,60.77
2017-05-30T00:34:37.816Z,60.77
2017-05-30T00:35:18.408Z,60.68
2017-05-30T00:35:58.985Z,61.06
2017-05-30T00:36:39.628Z,60.68
2017-05-30T00:37:20.144Z,61.16
2017-05-30T00:38:00.741Z,61.06
2017-05-30T00:38:41.324Z,61.06
2017-05-30T00:39:21.911Z,61.16
2017-05-30T00:40:02.489Z,61.35
2017-05-30T00:40:43.079Z,61.06
2017-05-30T00:41:23.645Z,61.35
2017-05-30T00:42:04.218Z,61.44
2017-05-30T00:42:44.793Z,61.54
2017-05-30T00:43:25.405Z,61.44
2017-05-30T00:44:05.982Z,62.02
2017-05-30T00:44:46.564Z,61.54
2017-05-30T00:45:27.142Z,61.64
2017-05-30T00:46:07.730Z,62.02
2017-05-30T00:46:48.315Z,61.64
2017-05-30T00:47:28.900Z,62.02
2017-05-30T00:48:09.487Z,61.74
2017-05-30T00:48:50.078Z,62.41
2017-05-30T00:49:30.666Z,62.31
2017-05-30T00:50:11.245Z,62.22
2017-05-30T00:50:51.832Z,62.02
2017-05-30T00:51:32.431Z,62.02
2017-05-30T00:52:13.030Z,62.12
2017-05-30T00:52:53.625Z,62.22
2017-05-30T00:53:34.209Z,62.12
2017-05-30T00:54:14.812Z,62.41
2017-05-30T00:54:55.397Z,62.38
2017-05-30T00:55:35.974Z,62.28
2017-05-30T00:56:16.559Z,62.41
2017-05-30T00:56:57.148Z,62.66
2017-05-30T00:57:37.734Z,62.28
2017-05-30T00:58:18.330Z,62.66
2017-05-30T00:58:58.911Z,62.99
2017-05-30T00:59:39.501Z,62.66
2017-05-30T01:00:20.114Z,62.66
2017-05-30T01:01:00.701Z,62.76
2017-05-30T01:01:41.295Z,62.76
2017-05-30T01:02:21.888Z,62.57
2017-05-30T01:03:02.486Z,62.7
2017-05-30T01:03:43.069Z,62.66
2017-05-30T01:04:23.644Z,62.86
2017-05-30T01:05:04.235Z,62.57
2017-05-30T01:05:44.824Z,62.79
2017-05-30T01:06:25.402Z,62.76
2017-05-30T01:07:06.000Z,62.48
2017-05-30T01:07:46.589Z,62.76
2017-05-30T01:08:27.193Z,62.79
2017-05-30T01:09:07.756Z,62.12
2017-05-30T01:09:48.354Z,62.89
2017-05-30T01:10:28.937Z,62.79
2017-05-30T01:11:09.513Z,62.66
2017-05-30T01:11:50.101Z,62.79
2017-05-30T01:12:30.681Z,62.51
2017-05-30T01:13:11.267Z,62.66
2017-05-30T01:13:51.853Z,62.57
2017-05-30T01:14:32.435Z,62.48
2017-05-30T01:15:13.032Z,62.48
2017-05-30T01:15:53.624Z,62.7
2017-05-30T01:16:34.202Z,61.9
2017-05-30T01:17:14.791Z,62.28
2017-05-30T01:17:55.382Z,62.09
2017-05-30T01:18:35.979Z,61.71
2017-05-30T01:19:16.572Z,62.09
2017-05-30T01:19:57.176Z,61.8
2017-05-30T01:20:37.759Z,61.8
2017-05-30T01:21:18.357Z,61.61
2017-05-30T01:21:58.953Z,62.28
2017-05-30T01:22:39.551Z,61.44
2017-05-30T01:23:20.137Z,61.64
2017-05-30T01:24:00.723Z,61.54
2017-05-30T01:24:41.311Z,61.54
2017-05-30T01:25:21.927Z,61.44
2017-05-30T01:26:02.512Z,61.83
2017-05-30T01:26:43.105Z,61.64
2017-05-30T01:27:23.693Z,61.54
2017-05-30T01:28:04.269Z,62.02
2017-05-30T01:28:44.858Z,61.61
2017-05-30T01:29:25.469Z,61.51
2017-05-30T01:30:06.059Z,61.54
2017-05-30T01:30:46.639Z,61.99
2017-05-30T01:31:27.226Z,62.28
2017-05-30T01:32:07.799Z,62.66
2017-05-30T01:32:48.388Z,62.99
2017-05-30T01:33:28.981Z,62.79
2017-05-30T01:34:09.559Z,62.41
2017-05-30T01:34:50.139Z,62.12
2017-05-30T01:35:30.713Z,61.8
2017-05-30T01:36:11.302Z,61.93
2017-05-30T01:36:51.896Z,61.64
2017-05-30T01:37:32.469Z,61.41
2017-05-30T01:38:13.061Z,61.32
2017-05-30T01:38:53.655Z,61.41
2017-05-30T01:39:34.281Z,61.51
2017-05-30T01:40:14.863Z,61.35
2017-05-30T01:40:55.445Z,61.22
2017-05-30T01:41:36.027Z,60.93
2017-05-30T01:42:16.614Z,61.32
2017-05-30T01:42:57.212Z,61.03
2017-05-30T01:43:37.792Z,61.03
2017-05-30T01:44:18.372Z,61.41
2017-05-30T01:44:58.965Z,61.51
2017-05-30T01:45:39.559Z,61.41
2017-05-30T01:46:20.188Z,61.41
2017-05-30T01:47:00.781Z,61.8
2017-05-30T01:47:41.369Z,61.41
2017-05-30T01:48:21.960Z,61.8
2017-05-30T01:49:02.571Z,61.8
2017-05-30T01:49:43.146Z,62.38
2017-05-30T01:50:23.735Z,61.51
2017-05-30T01:51:04.338Z,61.61
2017-05-30T01:51:44.914Z,61.41
2017-05-30T01:52:25.492Z,61.61
2017-05-30T01:53:06.128Z,62.09
2017-05-30T01:53:46.662Z,61.99
2017-05-30T01:54:27.241Z,62.18
2017-05-30T01:55:07.838Z,62.18
2017-05-30T01:55:48.431Z,62.28
2017-05-30T01:56:29.015Z,62.57
2017-05-30T01:57:09.609Z,62.66
2017-05-30T01:57:50.198Z,62.38
2017-05-30T01:58:30.774Z,61.99
2017-05-30T01:59:11.360Z,62.38
2017-05-30T01:59:51.950Z,62.28
2017-05-30T02:00:32.626Z,62.57
2017-05-30T02:01:13.212Z,61.51
2017-05-30T02:01:53.804Z,61.61
2017-05-30T02:02:34.423Z,61.61
2017-05-30T02:03:15.016Z,61.8
2017-05-30T02:03:55.624Z,61.61
2017-05-30T02:04:36.206Z,62.38
2017-05-30T02:05:16.800Z,62.28
2017-05-30T02:05:57.383Z,62.09
2017-05-30T02:06:38.033Z,61.71
2017-05-30T02:07:18.621Z,61.61
2017-05-30T02:07:59.218Z,61.51
2017-05-30T02:08:39.807Z,61.71
2017-05-30T02:09:20.445Z,61.35
2017-05-30T02:10:01.017Z,61.54
2017-05-30T02:10:41.604Z,61.03
2017-05-30T02:11:22.207Z,61.44
2017-05-30T02:12:02.791Z,61.41
2017-05-30T02:12:43.381Z,61.71
2017-05-30T02:13:23.970Z,61.61
2017-05-30T02:14:04.547Z,61.71
2017-05-30T02:14:45.137Z,62.18
2017-05-30T02:15:25.742Z,62.09
2017-05-30T02:16:06.328Z,62.09
2017-05-30T02:16:46.893Z,62.38
2017-05-30T02:17:27.496Z,62.18
2017-05-30T02:18:08.084Z,62.86
2017-05-30T02:18:48.682Z,62.66
2017-05-30T02:19:29.277Z,62.48
2017-05-30T02:20:09.856Z,62.76
2017-05-30T02:20:50.454Z,62.38
2017-05-30T02:21:31.043Z,62.66
2017-05-30T02:22:11.627Z,62.66
2017-05-30T02:22:52.208Z,62.48
2017-05-30T02:23:32.813Z,62.76
2017-05-30T02:24:13.393Z,62.66
2017-05-30T02:24:53.986Z,63.44
2017-05-30T02:25:34.565Z,62.66
2017-05-30T02:26:15.169Z,62.76
2017-05-30T02:26:55.797Z,62.48
2017-05-30T02:27:36.415Z,62.57
2017-05-30T02:28:16.992Z,62.86
2017-05-30T02:28:57.582Z,62.96
2017-05-30T02:29:38.180Z,62.66
2017-05-30T02:30:18.773Z,62.66
2017-05-30T02:30:59.372Z,62.66
2017-05-30T02:31:39.956Z,62.76
2017-05-30T02:32:20.560Z,62.76
2017-05-30T02:33:01.147Z,62.38
2017-05-30T02:33:41.742Z,62.66
2017-05-30T02:34:22.322Z,62.96
2017-05-30T02:35:02.921Z,62.83
2017-05-30T02:35:43.512Z,63.06
2017-05-30T02:36:24.083Z,63.31
2017-05-30T02:37:04.669Z,63.6
2017-05-30T02:37:45.248Z,63.7
2017-05-30T02:38:25.830Z,63.6
2017-05-30T02:39:06.418Z,63.5
2017-05-30T02:39:47.012Z,63.41
2017-05-30T02:40:27.605Z,63.6
2017-05-30T02:41:08.180Z,63.5
2017-05-30T02:41:48.762Z,63.63
2017-05-30T02:42:29.344Z,63.02
2017-05-30T02:43:09.935Z,63.15
2017-05-30T02:43:50.536Z,63.12
2017-05-30T02:44:31.126Z,63.31
2017-05-30T02:45:11.709Z,63.34
2017-05-30T02:45:52.290Z,63.21
2017-05-30T02:46:32.872Z,63.34
2017-05-30T02:47:13.466Z,63.34
2017-05-30T02:47:54.039Z,63.31
2017-05-30T02:48:34.636Z,63.34
2017-05-30T02:49:15.229Z,62.86
2017-05-30T02:49:55.817Z,63.12
2017-05-30T02:50:36.401Z,63.06
2017-05-30T02:51:16.993Z,63.02
2017-05-30T02:51:57.579Z,63.06
2017-05-30T02:52:38.162Z,62.86
2017-05-30T02:53:18.741Z,62.86
2017-05-30T02:53:59.319Z,63.24
2017-05-30T02:54:39.908Z,62.86
2017-05-30T02:55:20.493Z,62.66
2017-05-30T02:56:01.084Z,62.66
2017-05-30T02:56:41.647Z,62.86
2017-05-30T02:57:22.264Z,62.76
2017-05-30T02:58:02.869Z,62.66
2017-05-30T02:58:43.449Z,62.48
2017-05-30T02:59:24.046Z,62.57
2017-05-30T03:00:04.657Z,62.86
2017-05-30T03:00:45.237Z,62.86
2017-05-30T03:01:25.835Z,62.86
2017-05-30T03:02:06.422Z,62.76
2017-05-30T03:02:47.023Z,62.96
2017-05-30T03:03:27.616Z,62.18
2017-05-30T03:04:08.275Z,62.28
2017-05-30T03:04:48.897Z,62.28
2017-05-30T03:05:29.492Z,62.09
2017-05-30T03:06:10.071Z,62.09
2017-05-30T03:06:50.686Z,62.06
2017-05-30T03:07:31.282Z,62.48
2017-05-30T03:08:11.861Z,62.18
2017-05-30T03:08:52.450Z,62.38
2017-05-30T03:09:33.041Z,62.57
2017-05-30T03:10:13.622Z,62.45
2017-05-30T03:10:54.206Z,62.66
2017-05-30T03:11:34.803Z,62.96
2017-05-30T03:12:15.409Z,62.57
2017-05-30T03:12:56.011Z,62.57
2017-05-30T03:13:36.599Z,62.57
2017-05-30T03:14:17.181Z,62.48
2017-05-30T03:14:57.764Z,62.48
2017-05-30T03:15:38.344Z,62.18
2017-05-30T03:16:18.930Z,61.9
2017-05-30T03:16:59.517Z,61.99
2017-05-30T03:17:40.122Z,62.48
2017-05-30T03:18:20.717Z,61.99
2017-05-30T03:19:01.334Z,62.48
2017-05-30T03:19:41.929Z,62.18
2017-05-30T03:20:22.512Z,62.48
2017-05-30T03:21:03.100Z,62.18
2017-05-30T03:21:43.687Z,61.71
2017-05-30T03:22:24.271Z,61.71
2017-05-30T03:23:04.876Z,61.51
2017-05-30T03:23:45.473Z,61.38
2017-05-30T03:24:26.090Z,61.29
2017-05-30T03:25:06.678Z,61.71
2017-05-30T03:25:47.262Z,62.18
2017-05-30T03:26:27.859Z,62.09
2017-05-30T03:27:08.448Z,62.06
2017-05-30T03:27:49.043Z,61.38
2017-05-30T03:28:29.638Z,61.58
2017-05-30T03:29:10.236Z,61.58
2017-05-30T03:29:50.827Z,61.51
2017-05-30T03:30:31.416Z,61.61
2017-05-30T03:31:12.004Z,61.41
2017-05-30T03:31:52.588Z,61.71
2017-05-30T03:32:33.191Z,61.8
2017-05-30T03:33:13.762Z,61.71
2017-05-30T03:33:54.361Z,62.18
2017-05-30T03:34:34.966Z,62.28
2017-05-30T03:35:15.561Z,61.99
2017-05-30T03:35:56.149Z,62.66
2017-05-30T03:36:36.731Z,62.18
2017-05-30T03:37:17.319Z,62.28
2017-05-30T03:37:57.913Z,62.38
2017-05-30T03:38:38.507Z,62.09
2017-05-30T03:39:19.108Z,62.28
2017-05-30T03:39:59.701Z,62.18
2017-05-30T03:40:40.290Z,61.71
2017-05-30T03:41:20.881Z,61.61
2017-05-30T03:42:01.468Z,62.18
2017-05-30T03:42:42.056Z,62.28
2017-05-30T03:43:22.640Z,61.99
2017-05-30T03:44:03.222Z,62.57
2017-05-30T03:44:43.823Z,62.18
2017-05-30T03:45:24.443Z,61.41
2017-05-30T03:46:05.035Z,61.51
2017-05-30T03:46:45.620Z,61.41
2017-05-30T03:47:26.220Z,62.38
2017-05-30T03:48:06.801Z,62.18
2017-05-30T03:48:47.414Z,62.28
2017-05-30T03:49:28.012Z,61.41
2017-05-30T03:50:08.601Z,61.51
2017-05-30T03:50:49.211Z,61.61
2017-05-30T03:51:29.800Z,61.71
2017-05-30T03:52:10.393Z,61.71
2017-05-30T03:52:50.968Z,62.28
2017-05-30T03:53:31.542Z,61.99
2017-05-30T03:54:12.182Z,62.09
2017-05-30T03:54:52.759Z,62.09
2017-05-30T03:55:33.353Z,62.18
2017-05-30T03:56:13.948Z,62.18
2017-05-30T03:56:54.565Z,62.09
2017-05-30T03:57:35.148Z,62.28
2017-05-30T03:58:15.738Z,62.18
2017-05-30T03:58:56.330Z,62.09
2017-05-30T03:59:36.948Z,62.09
2017-05-30T04:00:17.538Z,62.38
2017-05-30T04:00:58.125Z,62.66
2017-05-30T04:01:38.718Z,62.48
2017-05-30T04:02:19.354Z,62.76
2017-05-30T04:02:59.904Z,62.48
2017-05-30T04:03:40.491Z,62.48
2017-05-30T04:04:21.091Z,62.57
2017-05-30T04:05:01.668Z,62.76
2017-05-30T04:05:42.239Z,62.66
2017-05-30T04:06:22.828Z,62.66
2017-05-30T04:07:03.416Z,62.38
2017-05-30T04:07:44.013Z,62.18
2017-05-30T04:08:24.611Z,62.18
2017-05-30T04:09:05.201Z,62.09
2017-05-30T04:09:45.778Z,62.18
2017-05-30T04:10:26.375Z,62.09
2017-05-30T04:11:06.973Z,62.28
2017-05-30T04:11:47.557Z,61.99
2017-05-30T04:12:28.146Z,62.18
2017-05-30T04:13:08.737Z,62.09
2017-05-30T04:13:49.334Z,61.61
2017-05-30T04:14:29.920Z,62.09
2017-05-30T04:15:10.514Z,62.09
2017-05-30T04:15:51.104Z,62.28
2017-05-30T04:16:31.676Z,62.09
2017-05-30T04:17:12.274Z,62.28
2017-05-30T04:17:52.869Z,62.28
2017-05-30T04:18:33.448Z,62.48
2017-05-30T04:19:14.055Z,62.28
2017-05-30T04:19:54.643Z,62.09
2017-05-30T04:20:35.230Z,62.38
2017-05-30T04:21:15.817Z,62.09
2017-05-30T04:21:56.406Z,62.28
2017-05-30T04:22:37.021Z,61.99
2017-05-30T04:23:17.613Z,61.61
2017-05-30T04:23:58.227Z,62.09
2017-05-30T04:24:38.815Z,62.18
2017-05-30T04:25:19.412Z,62.76
2017-05-30T04:26:00.023Z,62.96
2017-05-30T04:26:40.598Z,62.48
2017-05-30T04:27:21.212Z,62.38
2017-05-30T04:28:01.819Z,62.66
2017-05-30T04:28:42.422Z,63.24
2017-05-30T04:29:23.011Z,62.66
2017-05-30T04:30:03.605Z,62.76
2017-05-30T04:30:44.210Z,62.76
2017-05-30T04:31:24.790Z,62.76
2017-05-30T04:32:05.382Z,62.66
2017-05-30T04:32:45.964Z,62.89
2017-05-30T04:33:26.553Z,62.66
2017-05-30T04:34:07.139Z,62.66
2017-05-30T04:34:47.746Z,62.76
2017-05-30T04:35:28.336Z,62.96
2017-05-30T04:36:08.925Z,62.66
2017-05-30T04:36:49.506Z,62.76
2017-05-30T04:37:30.088Z,62.51
2017-05-30T04:38:10.659Z,63.15
2017-05-30T04:38:51.236Z,62.86
2017-05-30T04:39:31.821Z,62.7
2017-05-30T04:40:12.410Z,62.66
2017-05-30T04:40:53.029Z,62.48
2017-05-30T04:41:33.625Z,63.34
2017-05-30T04:42:14.207Z,62.96
2017-05-30T04:42:54.809Z,63.18
2017-05-30T04:43:35.416Z,62.86
2017-05-30T04:44:16.008Z,63.15
2017-05-30T04:44:56.612Z,62.76
2017-05-30T04:45:37.211Z,62.7
2017-05-30T04:46:17.783Z,62.48
2017-05-30T04:46:58.364Z,62.38
2017-05-30T04:47:38.951Z,63.28
2017-05-30T04:48:19.547Z,62.99
2017-05-30T04:49:00.114Z,62.48
2017-05-30T04:49:40.692Z,62.79
2017-05-30T04:50:21.298Z,62.6
2017-05-30T04:51:01.908Z,63.09
2017-05-30T04:51:42.489Z,63.18
2017-05-30T04:52:23.099Z,63.57
2017-05-30T04:53:03.691Z,63.09
2017-05-30T04:53:44.270Z,62.51
2017-05-30T04:54:24.873Z,62.99
2017-05-30T04:55:05.471Z,62.79
2017-05-30T04:55:46.131Z,62.79
2017-05-30T04:56:26.719Z,62.79
2017-05-30T04:57:07.298Z,62.89
2017-05-30T04:57:47.895Z,62.51
2017-05-30T04:58:28.509Z,62.99
2017-05-30T04:59:09.103Z,62.51
2017-05-30T04:59:49.685Z,62.79
2017-05-30T05:00:30.269Z,62.79
2017-05-30T05:01:10.900Z,62.7
2017-05-30T05:01:51.485Z,62.12
2017-05-30T05:02:32.069Z,62.79
2017-05-30T05:03:12.658Z,63.37
2017-05-30T05:03:53.254Z,63.47
2017-05-30T05:04:33.851Z,63.37
2017-05-30T05:05:14.454Z,62.79
2017-05-30T05:05:55.034Z,62.7
2017-05-30T05:06:35.630Z,62.79
2017-05-30T05:07:16.213Z,62.7
2017-05-30T05:07:56.805Z,62.7
2017-05-30T05:08:37.387Z,62.7
2017-05-30T05:09:17.988Z,62.02
2017-05-30T05:09:58.572Z,62.22
2017-05-30T05:10:39.167Z,62.31
2017-05-30T05:11:19.805Z,62.51
2017-05-30T05:12:00.435Z,62.12
2017-05-30T05:12:41.013Z,62.89
2017-05-30T05:13:21.637Z,62.79
2017-05-30T05:14:02.274Z,62.79
2017-05-30T05:14:42.889Z,62.51
2017-05-30T05:15:23.549Z,62.41
2017-05-30T05:16:04.135Z,62.41
2017-05-30T05:16:44.727Z,62.51
2017-05-30T05:17:25.322Z,62.02
2017-05-30T05:18:05.900Z,62.51
2017-05-30T05:18:46.489Z,62.31
2017-05-30T05:19:27.085Z,62.79
2017-05-30T05:20:07.676Z,62.31
2017-05-30T05:20:48.252Z,62.51
2017-05-30T05:21:28.831Z,62.6
2017-05-30T05:22:09.422Z,62.79
2017-05-30T05:22:50.003Z,62.79
2017-05-30T05:23:30.591Z,62.79
2017-05-30T05:24:11.167Z,62.7
2017-05-30T05:24:51.754Z,62.41
2017-05-30T05:25:32.345Z,62.6
2017-05-30T05:26:12.916Z,62.12
2017-05-30T05:26:53.518Z,62.25
2017-05-30T05:27:34.101Z,62.34
2017-05-30T05:28:14.701Z,61.86
2017-05-30T05:28:55.307Z,61.67
2017-05-30T05:29:35.893Z,61.19
2017-05-30T05:30:16.467Z,60.61
2017-05-30T05:30:57.063Z,61.12
2017-05-30T05:31:37.663Z,60.25
2017-05-30T05:32:18.282Z,60.16
2017-05-30T05:32:58.877Z,60.54
2017-05-30T05:33:39.479Z,59.48
2017-05-30T05:34:20.065Z,59.12
2017-05-30T05:35:00.705Z,59.28
2017-05-30T05:35:41.285Z,59.02
2017-05-30T05:36:21.872Z,59.12
2017-05-30T05:37:02.470Z,58.73
2017-05-30T05:37:43.103Z,58.64
2017-05-30T05:38:23.637Z,58.64
2017-05-30T05:39:04.280Z,58.25
2017-05-30T05:39:44.876Z,57.89
2017-05-30T05:40:25.489Z,57.51
2017-05-30T05:41:06.081Z,57.51
2017-05-30T05:41:46.702Z,57.41
2017-05-30T05:42:28.609Z,57.51
2017-05-30T05:43:09.255Z,56.63
2017-05-30T05:43:49.837Z,56.37
2017-05-30T05:44:30.429Z,56.37
2017-05-30T05:45:11.055Z,56.37
2017-05-30T05:45:58.713Z,56.37
2017-05-30T05:46:44.479Z,55.7
2017-05-30T05:47:25.070Z,56.02
2017-05-30T05:48:15.137Z,55.34
2017-05-30T05:50:19.132Z,55.05
2017-05-30T05:50:59.713Z,54.75
2017-05-30T05:51:40.326Z,55.27
2017-05-30T05:52:20.915Z,54.47
2017-05-30T05:53:01.534Z,53.81
2017-05-30T05:53:42.140Z,53.91
2017-05-30T05:54:22.750Z,54.11
2017-05-30T05:55:03.334Z,53.65
2017-05-30T05:55:44.005Z,53.45
2017-05-30T05:56:24.630Z,53.55
2017-05-30T05:57:05.231Z,53.36
2017-05-30T05:57:45.831Z,53.94
2017-05-30T05:58:26.436Z,53.26
2017-05-30T05:59:07.029Z,52.97
2017-05-30T05:59:47.658Z,52.49
2017-05-30T06:00:28.290Z,51.9
2017-05-30T06:01:08.875Z,51.81
2017-05-30T06:01:49.470Z,51.72
2017-05-30T06:02:30.075Z,51.84
2017-05-30T06:03:10.701Z,51.64
2017-05-30T06:03:51.309Z,51.54
2017-05-30T06:04:31.924Z,50.96
2017-05-30T06:05:12.559Z,51.06
2017-05-30T06:05:53.149Z,51.06
2017-05-30T06:06:33.745Z,50.77
2017-05-30T06:07:14.321Z,50.96
2017-05-30T06:07:54.912Z,50.99
2017-05-30T06:08:35.690Z,50.89
2017-05-30T06:09:16.291Z,50.7
2017-05-30T06:09:56.889Z,50.7
2017-05-30T06:10:37.511Z,50.89
2017-05-30T06:11:18.118Z,49.92
2017-05-30T06:11:58.707Z,49.54
2017-05-30T06:12:39.299Z,50.02
2017-05-30T06:13:19.889Z,49.54
2017-05-30T06:14:00.482Z,49.27
2017-05-30T06:14:41.074Z,49.75
2017-05-30T06:15:21.668Z,50.24
2017-05-30T06:16:02.316Z,50.82
2017-05-30T06:16:42.911Z,49.95
2017-05-30T06:17:23.507Z,49.29
2017-05-30T06:18:04.113Z,49.19
2017-05-30T06:18:44.693Z,49.87
2017-05-30T06:19:25.291Z,50.65
2017-05-30T06:20:05.894Z,50.46
2017-05-30T06:20:46.478Z,48.71
2017-05-30T06:21:27.098Z,48.8
2017-05-30T06:22:07.760Z,48.71
2017-05-30T06:22:48.360Z,48.8
2017-05-30T06:23:28.945Z,49.51
2017-05-30T06:24:09.537Z,48.64
2017-05-30T06:24:50.155Z,48.73
2017-05-30T06:25:30.728Z,48.64
2017-05-30T06:26:11.390Z,47.66
2017-05-30T06:26:51.980Z,47.47
2017-05-30T06:27:32.606Z,47.57
2017-05-30T06:28:13.212Z,46.79
2017-05-30T06:28:53.788Z,47.47
2017-05-30T06:29:34.390Z,47.57
2017-05-30T06:30:14.985Z,47.38
2017-05-30T06:30:55.584Z,47.47
2017-05-30T06:31:36.181Z,48.05
2017-05-30T06:32:16.823Z,47.57
2017-05-30T06:32:57.442Z,47.11
2017-05-30T06:33:38.028Z,46.89
2017-05-30T06:34:18.681Z,45.92
2017-05-30T06:34:59.372Z,46.6
2017-05-30T06:35:40.041Z,47.38
2017-05-30T06:36:20.675Z,47.38
2017-05-30T06:37:01.271Z,47.47
2017-05-30T06:37:41.898Z,48.08
2017-05-30T06:38:22.521Z,48.37
2017-05-30T06:39:03.161Z,47.4
2017-05-30T06:39:43.835Z,46.5
2017-05-30T06:40:24.465Z,47.3
2017-05-30T06:41:05.112Z,46.91
2017-05-30T06:41:45.721Z,46.52
2017-05-30T06:42:26.445Z,47.11
2017-05-30T06:43:07.149Z,47.01
2017-05-30T06:43:47.762Z,46.33
2017-05-30T06:44:28.429Z,46.52
2017-05-30T06:45:09.047Z,46.15
2017-05-30T06:45:49.675Z,46.15
2017-05-30T06:46:30.305Z,45.38
2017-05-30T06:47:10.904Z,45.48
2017-05-30T06:47:51.504Z,45.67
2017-05-30T06:48:32.089Z,45.38
2017-05-30T06:49:12.682Z,45.75
2017-05-30T06:49:53.283Z,45.57
2017-05-30T06:50:33.879Z,45.45
2017-05-30T06:51:14.483Z,45.57
2017-05-30T06:51:55.076Z,45.28
2017-05-30T06:52:35.671Z,45.57
2017-05-30T06:53:16.301Z,45.38
2017-05-30T06:53:56.896Z,45.87
2017-05-30T06:54:37.592Z,45.57
2017-05-30T06:55:18.232Z,44.99
2017-05-30T06:55:58.824Z,44.99
2017-05-30T06:56:39.420Z,44.99
2017-05-30T06:57:20.014Z,44.79
2017-05-30T06:58:00.616Z,45.38
2017-05-30T06:58:41.211Z,46.25
2017-05-30T06:59:21.855Z,45.77
2017-05-30T07:00:02.440Z,45.75
2017-05-30T07:00:43.064Z,45.77
2017-05-30T07:01:23.670Z,45.67
2017-05-30T07:02:04.272Z,45.57
2017-05-30T07:02:44.882Z,45.28
2017-05-30T07:03:25.492Z,45.57
2017-05-30T07:04:06.098Z,45.38
2017-05-30T07:04:46.693Z,45.57
2017-05-30T07:05:27.298Z,45.18
2017-05-30T07:06:07.906Z,45.18
2017-05-30T07:06:48.578Z,44.87
2017-05-30T07:07:29.185Z,45.17
2017-05-30T07:08:09.817Z,45.84
2017-05-30T07:08:50.499Z,45.94
2017-05-30T07:09:31.149Z,47.2
2017-05-30T07:10:11.944Z,46.23
2017-05-30T07:10:52.557Z,45.57
2017-05-30T07:11:33.199Z,45.09
2017-05-30T07:12:13.785Z,44.6
2017-05-30T07:12:54.375Z,44.6
2017-05-30T07:13:34.959Z,44.41
2017-05-30T07:14:15.543Z,44.79
2017-05-30T07:14:56.175Z,45.57
2017-05-30T07:15:36.770Z,46.25
2017-05-30T07:16:17.358Z,46.55
2017-05-30T07:16:57.967Z,45.87
2017-05-30T07:17:38.575Z,45.09
2017-05-30T07:18:19.164Z,46.25
2017-05-30T07:18:59.774Z,46.15
2017-05-30T07:19:40.376Z,45.67
2017-05-30T07:20:20.986Z,45.28
2017-05-30T07:21:01.602Z,44.79
2017-05-30T07:21:42.289Z,44.99
2017-05-30T07:22:23.107Z,45.18
2017-05-30T07:23:03.779Z,45.09
2017-05-30T07:23:44.653Z,44.58
2017-05-30T07:24:25.415Z,44.29
2017-05-30T07:25:06.232Z,45.07
2017-05-30T07:25:46.998Z,46.23
2017-05-30T07:26:27.760Z,47.32
2017-05-30T07:27:08.573Z,46.45
2017-05-30T07:27:49.357Z,45.77
2017-05-30T07:28:30.081Z,45.28
2017-05-30T07:29:10.861Z,44.79
2017-05-30T07:29:51.632Z,44.89
2017-05-30T07:30:32.343Z,44.53
2017-05-30T07:31:12.992Z,44.62
2017-05-30T07:31:53.691Z,44.24
2017-05-30T07:32:34.434Z,44.43
2017-05-30T07:33:15.425Z,44.53
2017-05-30T07:33:56.099Z,44.62
2017-05-30T07:34:36.748Z,44.02
2017-05-30T07:35:17.340Z,44.31
2017-05-30T07:35:57.934Z,44.51
2017-05-30T07:36:38.523Z,44.6
2017-05-30T07:37:19.116Z,45.18
2017-05-30T07:37:59.722Z,45.38
2017-05-30T07:38:40.333Z,45.26
2017-05-30T07:39:20.954Z,45.45
2017-05-30T07:40:01.537Z,45.45
2017-05-30T07:40:42.129Z,45.75
2017-05-30T07:41:22.721Z,46.23
2017-05-30T07:42:03.366Z,46.33
2017-05-30T07:42:43.980Z,47.3
2017-05-30T07:43:24.562Z,47.11
2017-05-30T07:44:05.146Z,46.25
2017-05-30T07:44:45.748Z,46.55
2017-05-30T07:45:26.344Z,46.15
2017-05-30T07:46:06.943Z,46.25
2017-05-30T07:46:47.527Z,46.06
2017-05-30T07:47:28.132Z,46.15
2017-05-30T07:48:08.713Z,46.35
2017-05-30T07:48:49.313Z,46.25
2017-05-30T07:49:29.921Z,45.77
2017-05-30T07:50:10.520Z,45.6
2017-05-30T07:50:51.122Z,46.18
2017-05-30T07:51:31.719Z,45.69
2017-05-30T07:52:12.321Z,45.81
2017-05-30T07:52:52.904Z,45.42
2017-05-30T07:53:33.503Z,45.23
2017-05-30T07:54:14.120Z,45.62
2017-05-30T07:54:54.711Z,45.14
2017-05-30T07:55:35.312Z,44.84
2017-05-30T07:56:15.900Z,44.84
2017-05-30T07:56:56.587Z,44.57
2017-05-30T07:57:37.184Z,44.38
2017-05-30T07:58:17.779Z,44.26
2017-05-30T07:58:58.390Z,43.99
2017-05-30T07:59:38.988Z,44.28
2017-05-30T08:00:19.581Z,44.09
2017-05-30T08:01:00.159Z,43.6
2017-05-30T08:01:40.761Z,43.6
2017-05-30T08:02:21.378Z,43.5
2017-05-30T08:03:02.006Z,43.67
2017-05-30T08:03:42.623Z,43.67
2017-05-30T08:04:23.216Z,44.35
2017-05-30T08:05:03.825Z,43.77
2017-05-30T08:05:44.417Z,44.26
2017-05-30T08:06:25.056Z,43.96
2017-05-30T08:07:05.650Z,43.77
2017-05-30T08:07:46.240Z,43.79
2017-05-30T08:08:26.897Z,44.48
2017-05-30T08:09:07.497Z,43.89
2017-05-30T08:09:49.575Z,43.11
2017-05-30T08:10:30.755Z,43.11
2017-05-30T08:11:17.781Z,43.7
2017-05-30T08:12:01.792Z,44.38
2017-05-30T08:12:42.383Z,43.79
2017-05-30T08:13:22.973Z,44.48
2017-05-30T08:14:04.079Z,43.77
2017-05-30T08:14:44.695Z,44.38
2017-05-30T08:15:25.332Z,44.67
2017-05-30T08:16:05.941Z,43.99
2017-05-30T08:16:46.526Z,43.7
2017-05-30T08:17:27.125Z,43.7
2017-05-30T08:18:07.730Z,43.3
2017-05-30T08:18:48.594Z,43.7
2017-05-30T08:19:29.192Z,43.99
2017-05-30T08:20:10.877Z,43.6
2017-05-30T08:20:51.490Z,43.7
2017-05-30T08:21:32.162Z,44.18
2017-05-30T08:22:12.749Z,43.7
2017-05-30T08:22:54.191Z,43.79
2017-05-30T08:23:34.824Z,44.57
2017-05-30T08:24:15.414Z,45.15
2017-05-30T08:24:56.037Z,45.35
2017-05-30T08:25:36.770Z,45.54
2017-05-30T08:26:17.351Z,45.35
2017-05-30T08:26:58.521Z,44.28
2017-05-30T08:27:39.150Z,44.09
2017-05-30T08:28:19.755Z,43.89
2017-05-30T08:29:00.339Z,44.09
2017-05-30T08:29:40.931Z,45.15
2017-05-30T08:30:21.526Z,45.64
2017-05-30T08:31:02.156Z,45.64
2017-05-30T08:31:42.773Z,46.05
2017-05-30T08:32:23.364Z,46.15
2017-05-30T08:33:03.959Z,45.47
2017-05-30T08:33:44.718Z,44.49
2017-05-30T08:34:25.305Z,43.71
2017-05-30T08:35:05.881Z,43.33
2017-05-30T08:35:46.477Z,43.91
2017-05-30T08:36:27.072Z,43.81
2017-05-30T08:37:07.678Z,43.79
2017-05-30T08:37:48.276Z,43.89
2017-05-30T08:38:28.871Z,43.7
2017-05-30T08:39:09.868Z,44.48
2017-05-30T08:39:56.154Z,44.57
2017-05-30T08:40:38.342Z,44.57
2017-05-30T08:41:20.878Z,44.76
2017-05-30T08:42:01.498Z,44.57
2017-05-30T08:42:42.088Z,44.96
2017-05-30T08:43:22.669Z,44.59
2017-05-30T08:44:03.264Z,44.59
2017-05-30T08:44:44.256Z,44.09
2017-05-30T08:45:24.841Z,43.5
2017-05-30T08:46:08.385Z,43.99